Погода Гробиняна неделю

Лиепайский район, Латвия

19 - 25 июля
  • 19июля
    Сегодня
    +15°
    +20°
    Ясно и безоблачно
    ВремяПогодаТемператураВлажностьДавлениеВетер, м/сВероятность осадков
    00:00Ясно и безоблачно+17°C87 %760 мм3.5 м/с2 %
    03:00Небольшая облачность+17°C86 %760 мм4.1 м/с2 %
    06:00Ясно и безоблачно+16°C86 %760 мм4.2 м/с2 %
    09:00Ясно и безоблачно+19°C78 %760 мм4.7 м/с2 %
    12:00Ясно и безоблачно+19°C76 %761 мм5.0 м/с2 %
    15:00Ясно и безоблачно+20°C75 %761 мм5.1 м/с2 %
    18:00Практически безоблачно+19°C77 %760 мм5.4 м/с2 %
    21:00Ясно и безоблачно+18°C83 %760 мм3.2 м/с2 %
  • 20июля
    Суббота
    +14°
    +23°
    Ясно и безоблачно
    ВремяПогодаТемператураВлажностьДавлениеВетер, м/сВероятность осадков
    00:00Ясно и безоблачно+15°C92 %759 мм1.9 м/с2 %
    03:00Небольшая облачность+15°C92 %759 мм1.6 м/с2 %
    06:00Практически безоблачно+15°C93 %758 мм2.1 м/с2 %
    09:00Ясно и безоблачно+20°C81 %758 мм2.8 м/с2 %
    12:00Ясно и безоблачно+21°C72 %757 мм3.7 м/с2 %
    15:00Ясно и безоблачно+22°C69 %757 мм4.0 м/с17 %
    18:00Практически безоблачно+21°C72 %756 мм4.6 м/с4 %
    21:00Ясно и безоблачно+20°C84 %756 мм2.5 м/с2 %
  • 21июля
    Воскресенье
    +14°
    +23°
    Практически безоблачно
    ВремяПогодаТемператураВлажностьДавлениеВетер, м/сВероятность осадков
    00:00Ясно и безоблачно+15°C97 %756 мм0.7 м/с2 %
    03:00Практически безоблачно+15°C97 %756 мм0.9 м/с2 %
    06:00Ясно и безоблачно+14°C97 %755 мм1.0 м/с2 %
    09:00Облачно с прояснениями+20°C80 %755 мм1.9 м/с2 %
    12:00Облачно с прояснениями+21°C73 %755 мм3.5 м/с16 %
    15:00Практически безоблачно+22°C72 %755 мм4.4 м/с28 %
    18:00Ясно и безоблачно+21°C72 %755 мм5.0 м/с16 %
    21:00Ясно и безоблачно+20°C81 %755 мм3.1 м/с6 %
  • 22июля
    Понедельник
    +17°
    +25°
    Практически безоблачно
    ВремяПогодаТемператураВлажностьДавлениеВетер, м/сВероятность осадков
    00:00Ясно и безоблачно+16°C94 %755 мм1.2 м/с2 %
    03:00Ясно и безоблачно+15°C98 %755 мм1.3 м/с2 %
    06:00Пасмурно, сплошная облачность+15°C100 %755 мм1.4 м/с2 %
    09:00Небольшая облачность+20°C90 %755 мм1.8 м/с2 %
    12:00Небольшая облачность+23°C67 %755 мм2.0 м/с12 %
    15:00Практически безоблачно+24°C67 %755 мм3.9 м/с33 %
    18:00Ясно и безоблачно+24°C73 %755 мм4.2 м/с24 %
    21:00Ясно и безоблачно+22°C79 %755 мм2.6 м/с11 %
Мы используем cookies
Соглашаюсь